Time;durP1;ratioP1;P1;durP2;ratioP2;P2;SDS_P1;SDS_P2;PMS_P1;PMS_P2;Temp;Humidity;BMP_temperature;BMP_pressure;BME280_temperature;BME280_humidity;BME280_pressure;Samples;Min_cycle;Max_cycle;Signal;HPM_P1;HPM_P2
2021/12/11 00:02:30;;;;;;;8.85;4.68;;;0.50;99.90;;;;;;5083623;28;20036;-50
2021/12/11 00:04:57;;;;;;;8.27;3.80;;;0.60;99.90;;;;;;5076969;28;20052;-57
2021/12/11 00:07:27;;;;;;;7.60;4.38;;;0.60;99.90;;;;;;5083648;28;20045;-55
2021/12/11 00:10:01;;;;;;;12.85;4.43;;;0.60;99.90;;;;;;5076104;28;20682;-56
2021/12/11 00:12:40;;;;;;;7.15;4.38;;;0.70;99.90;;;;;;5080314;28;20048;-51
2021/12/11 00:15:22;;;;;;;9.82;3.97;;;0.70;99.90;;;;;;5075756;28;20037;-57
2021/12/11 00:17:49;;;;;;;11.65;3.97;;;0.70;99.90;;;;;;5066632;28;20040;-53
2021/12/11 00:20:22;;;;;;;8.80;3.60;;;0.70;99.90;;;;;;5061636;28;20067;-57
2021/12/11 00:22:48;;;;;;;7.72;3.72;;;0.80;99.90;;;;;;5060146;28;20097;-54
2021/12/11 00:25:17;;;;;;;8.70;4.13;;;0.70;99.90;;;;;;5076552;28;20498;-57
2021/12/11 00:27:45;;;;;;;8.25;3.65;;;0.80;99.90;;;;;;5070606;28;20116;-52
2021/12/11 00:30:24;;;;;;;12.40;4.18;;;0.80;99.90;;;;;;5060034;28;20033;-55
2021/12/11 00:33:01;;;;;;;15.40;3.95;;;0.80;99.90;;;;;;5057577;28;20564;-55
2021/12/11 00:35:29;;;;;;;6.53;3.78;;;0.80;99.90;;;;;;5058500;28;20559;-55
2021/12/11 00:38:03;;;;;;;6.82;3.45;;;0.80;99.90;;;;;;5062666;28;20098;-57
2021/12/11 00:40:29;;;;;;;9.05;4.03;;;0.90;99.90;;;;;;5062802;28;20082;-55
2021/12/11 00:42:57;;;;;;;7.55;3.90;;;0.80;99.90;;;;;;5068660;28;20060;-54
2021/12/11 00:45:26;;;;;;;9.32;3.67;;;0.90;99.90;;;;;;5060189;28;20037;-50
2021/12/11 00:48:07;;;;;;;7.57;3.55;;;0.80;99.90;;;;;;5060322;28;20044;-57
2021/12/11 00:50:54;;;;;;;7.63;3.60;;;0.80;99.90;;;;;;5061628;28;20036;-57
2021/12/11 00:53:25;;;;;;;;;;;0.80;99.90;;;;;;5064523;28;20032;-57
2021/12/11 00:55:55;;;;;;;10.70;5.13;;;0.80;99.90;;;;;;5052491;28;19927;-55
2021/12/11 00:58:24;;;;;;;10.00;4.25;;;0.70;99.90;;;;;;5061928;28;20388;-53
2021/12/11 01:00:52;;;;;;;6.57;3.17;;;0.70;99.90;;;;;;5053752;28;20041;-56
2021/12/11 01:03:31;;;;;;;5.13;3.00;;;0.70;99.90;;;;;;5068676;28;20029;-57
2021/12/11 01:05:59;;;;;;;8.43;3.50;;;0.80;99.90;;;;;;5067738;28;20511;-55
2021/12/11 01:08:32;;;;;;;9.93;3.35;;;0.70;99.90;;;;;;5060096;28;20049;-57
2021/12/11 01:11:19;;;;;;;6.28;3.47;;;0.70;99.90;;;;;;5062225;28;20125;-55
2021/12/11 01:13:52;;;;;;;8.20;3.03;;;0.70;99.90;;;;;;5056869;28;20091;-55
2021/12/11 01:16:18;;;;;;;10.52;3.63;;;0.60;99.90;;;;;;5063985;28;20127;-56
2021/12/11 01:18:48;;;;;;;10.90;3.33;;;0.50;99.90;;;;;;5065331;28;20158;-54
2021/12/11 01:21:32;;;;;;;11.82;3.25;;;0.40;99.90;;;;;;5063612;28;20090;-55
2021/12/11 01:26:36;;;;;;;6.97;3.38;;;0.30;99.90;;;;;;5066865;28;20526;-58
2021/12/11 01:29:02;;;;;;;7.05;3.03;;;0.20;99.90;;;;;;5061968;28;20091;-54
2021/12/11 01:31:28;;;;;;;10.02;3.75;;;0.20;99.90;;;;;;5063668;28;20549;-55
2021/12/11 01:33:56;;;;;;;14.82;3.47;;;0.10;99.90;;;;;;5062428;28;20033;-56
2021/12/11 01:36:23;;;;;;;9.32;3.55;;;0.10;99.90;;;;;;5065259;28;20060;-55
2021/12/11 01:38:58;;;;;;;6.15;3.28;;;0.00;99.90;;;;;;5064524;28;20051;-54
2021/12/11 01:41:25;;;;;;;7.67;3.10;;;0.00;99.90;;;;;;5065425;28;20052;-54
2021/12/11 01:43:55;;;;;;;10.15;3.65;;;-0.10;99.90;;;;;;5064229;28;20070;-53
2021/12/11 01:46:23;;;;;;;7.63;3.72;;;-0.10;99.90;;;;;;5063477;28;20045;-51
2021/12/11 01:48:53;;;;;;;8.20;3.35;;;-0.20;99.90;;;;;;5064259;28;20036;-56
2021/12/11 01:51:26;;;;;;;7.95;3.47;;;-0.20;99.90;;;;;;5064215;28;20033;-57
2021/12/11 01:54:12;;;;;;;10.30;4.15;;;-0.20;99.90;;;;;;5052262;28;20029;-53
2021/12/11 01:56:42;;;;;;;11.27;4.20;;;-0.30;99.90;;;;;;5065884;28;20048;-55
2021/12/11 01:59:15;;;;;;;13.50;4.25;;;-0.30;99.90;;;;;;5061885;28;20041;-54
2021/12/11 02:01:46;;;;;;;8.82;4.47;;;-0.30;99.90;;;;;;5066503;28;20040;-55
2021/12/11 02:04:15;;;;;;;13.02;4.78;;;-0.30;99.90;;;;;;5060437;28;20040;-55
2021/12/11 02:06:46;;;;;;;11.77;4.97;;;-0.30;99.90;;;;;;5064261;28;20052;-55
2021/12/11 02:09:14;;;;;;;16.52;4.70;;;-0.30;99.90;;;;;;5054153;28;20234;-54
2021/12/11 02:11:40;;;;;;;12.73;5.03;;;-0.30;99.90;;;;;;5061494;28;20045;-56
2021/12/11 02:14:07;;;;;;;11.98;4.97;;;-0.40;99.90;;;;;;5056841;28;20112;-55
2021/12/11 02:16:48;;;;;;;12.73;5.05;;;-0.40;99.90;;;;;;5061056;28;20045;-55
2021/12/11 02:19:22;;;;;;;12.57;4.75;;;-0.40;99.90;;;;;;5058222;28;20134;-51
2021/12/11 02:21:55;;;;;;;9.20;4.47;;;-0.40;99.90;;;;;;5056528;28;20748;-56
2021/12/11 02:24:24;;;;;;;11.10;5.10;;;-0.40;99.90;;;;;;5059965;28;20059;-54
2021/12/11 02:26:54;;;;;;;11.45;5.53;;;-0.40;99.90;;;;;;5066594;28;20472;-56
2021/12/11 02:29:34;;;;;;;15.32;5.07;;;-0.50;99.90;;;;;;5060219;28;20106;-54
2021/12/11 02:32:04;;;;;;;13.10;5.63;;;-0.50;99.90;;;;;;5057912;28;20412;-52
2021/12/11 02:34:38;;;;;;;15.32;5.88;;;-0.60;99.90;;;;;;5059259;28;20044;-53
2021/12/11 02:37:09;;;;;;;13.60;5.25;;;-0.60;99.90;;;;;;5062351;28;20110;-63
2021/12/11 02:39:59;;;;;;;13.70;4.93;;;-0.60;99.90;;;;;;5059411;28;20131;-57
2021/12/11 02:42:32;;;;;;;15.63;5.72;;;-0.70;99.90;;;;;;5062691;28;20044;-55
2021/12/11 02:45:10;;;;;;;15.18;4.93;;;-0.70;99.90;;;;;;5059865;28;20041;-55
2021/12/11 02:47:40;;;;;;;18.13;5.20;;;-0.80;99.90;;;;;;5065261;28;20045;-53
2021/12/11 02:50:11;;;;;;;12.25;5.70;;;-0.80;99.90;;;;;;5060149;28;20033;-58
2021/12/11 02:52:58;;;;;;;12.32;5.25;;;-0.80;99.90;;;;;;5062901;28;20045;-54
2021/12/11 02:55:40;;;;;;;12.57;6.55;;;-0.90;99.90;;;;;;5058662;28;20074;-55
2021/12/11 02:58:17;;;;;;;11.65;5.15;;;-0.90;99.90;;;;;;5066126;28;20465;-52
2021/12/11 03:00:45;;;;;;;10.35;5.85;;;-0.90;99.90;;;;;;5059268;28;20067;-53
2021/12/11 03:03:13;;;;;;;12.88;5.68;;;-0.80;99.90;;;;;;5069237;28;20048;-56
2021/12/11 03:05:56;;;;;;;12.40;5.28;;;-0.90;99.90;;;;;;5060845;28;20075;-57
2021/12/11 03:08:22;;;;;;;10.82;5.95;;;-0.90;99.90;;;;;;5057261;28;20144;-57
2021/12/11 03:10:54;;;;;;;12.35;6.43;;;-0.90;99.90;;;;;;5061746;28;20139;-53
2021/12/11 03:13:21;;;;;;;14.95;5.88;;;-0.90;99.90;;;;;;5061058;28;20029;-57
2021/12/11 03:15:47;;;;;;;14.57;5.82;;;-0.90;99.90;;;;;;5058982;28;20732;-55
2021/12/11 03:18:13;;;;;;;13.95;5.57;;;-1.00;99.90;;;;;;5065151;28;20043;-57
2021/12/11 03:20:41;;;;;;;13.82;6.18;;;-1.00;99.90;;;;;;5058965;28;20066;-56
2021/12/11 03:23:09;;;;;;;14.98;5.65;;;-1.00;99.90;;;;;;5061937;28;20507;-58
2021/12/11 03:25:38;;;;;;;14.82;5.50;;;-1.00;99.90;;;;;;5057210;28;20345;-57
2021/12/11 03:28:06;;;;;;;14.32;5.88;;;-1.00;99.90;;;;;;5065509;28;20496;-55
2021/12/11 03:30:35;;;;;;;24.55;5.15;;;-1.00;99.90;;;;;;5058250;28;20139;-57
2021/12/11 03:33:08;;;;;;;13.02;5.90;;;-1.00;99.90;;;;;;5063419;28;20037;-58
2021/12/11 03:35:35;;;;;;;16.85;5.53;;;-1.00;99.90;;;;;;5061180;28;20568;-55
2021/12/11 03:38:02;;;;;;;10.30;5.53;;;-1.00;99.90;;;;;;5059746;28;20048;-53
2021/12/11 03:40:28;;;;;;;10.43;5.30;;;-1.00;99.90;;;;;;5058910;28;20159;-57
2021/12/11 03:42:56;;;;;;;15.73;6.07;;;-1.00;99.90;;;;;;5062008;28;21009;-56
2021/12/11 03:45:26;;;;;;;15.52;5.00;;;-1.00;99.90;;;;;;5054701;28;20060;-57
2021/12/11 03:47:58;;;;;;;14.07;6.22;;;-1.00;99.90;;;;;;5062928;28;20150;-57
2021/12/11 03:50:26;;;;;;;15.95;6.05;;;-1.00;99.90;;;;;;5058298;28;20124;-54
2021/12/11 03:52:52;;;;;;;10.77;5.55;;;-1.10;99.90;;;;;;5064785;28;20039;-53
2021/12/11 03:55:34;;;;;;;12.93;5.38;;;-1.10;99.90;;;;;;5063671;28;20044;-54
2021/12/11 03:58:01;;;;;;;16.20;5.72;;;-1.10;99.90;;;;;;5062978;28;20028;-55
2021/12/11 04:00:38;;;;;;;15.45;5.70;;;-1.10;99.90;;;;;;5061827;28;20178;-52
2021/12/11 04:03:08;;;;;;;14.48;6.13;;;-1.10;99.90;;;;;;5069673;28;20720;-52
2021/12/11 04:05:37;;;;;;;14.05;5.78;;;-1.10;99.90;;;;;;5058479;28;20076;-55
2021/12/11 04:08:04;;;;;;;14.18;6.00;;;-1.20;99.90;;;;;;5060048;28;20037;-55
2021/12/11 04:10:30;;;;;;;15.38;6.38;;;-1.20;99.90;;;;;;5057908;28;20041;-54
2021/12/11 04:12:59;;;;;;;14.70;5.75;;;-1.20;99.90;;;;;;5066861;28;20455;-53
2021/12/11 04:15:26;;;;;;;18.27;6.18;;;-1.20;99.90;;;;;;5058696;28;20048;-53
2021/12/11 04:17:54;;;;;;;14.75;5.82;;;-1.20;99.90;;;;;;5068864;28;20078;-57
2021/12/11 04:20:22;;;;;;;17.38;6.03;;;-1.20;99.90;;;;;;5061745;28;20064;-56
2021/12/11 04:22:48;;;;;;;15.25;5.50;;;-1.20;99.90;;;;;;5065811;28;20081;-56
2021/12/11 04:25:19;;;;;;;15.55;6.43;;;-1.20;99.90;;;;;;5058967;28;20120;-53
2021/12/11 04:27:47;;;;;;;14.02;6.15;;;-1.20;99.90;;;;;;5054156;28;20045;-53
2021/12/11 04:30:15;;;;;;;13.88;6.13;;;-1.20;99.90;;;;;;5060919;28;20131;-57
2021/12/11 04:32:41;;;;;;;19.42;7.90;;;-1.20;99.90;;;;;;5066346;28;20109;-56
2021/12/11 04:35:09;;;;;;;21.63;6.45;;;-1.20;99.90;;;;;;5062043;28;20040;-53
2021/12/11 04:37:36;;;;;;;12.30;6.03;;;-1.30;99.90;;;;;;5062498;28;20455;-56
2021/12/11 04:40:10;;;;;;;15.38;6.35;;;-1.30;99.90;;;;;;5061761;28;20150;-53
2021/12/11 04:45:15;;;;;;;13.57;6.35;;;-1.20;99.90;;;;;;5062943;28;20499;-57
2021/12/11 04:47:52;;;;;;;11.13;6.93;;;-1.20;99.90;;;;;;5067085;28;20044;-58
2021/12/11 04:50:30;;;;;;;16.65;6.78;;;-1.20;99.90;;;;;;5062296;28;20067;-55
2021/12/11 04:52:58;;;;;;;18.92;7.72;;;-1.20;99.90;;;;;;5063241;28;20028;-53
2021/12/11 04:58:11;;;;;;;13.52;6.38;;;-1.20;99.90;;;;;;5068342;28;20576;-53
2021/12/11 05:01:04;;;;;;;14.95;6.88;;;-1.30;99.90;;;;;;5060903;28;20033;-55
2021/12/11 05:03:50;;;;;;;16.27;7.38;;;-1.20;99.90;;;;;;5062954;28;20036;-54
2021/12/11 05:06:28;;;;;;;22.03;8.20;;;-1.20;99.90;;;;;;5064426;28;20064;-57
2021/12/11 05:11:51;;;;;;;14.43;6.65;;;-1.20;99.90;;;;;;5062867;28;20097;-56
2021/12/11 05:14:19;;;;;;;18.98;7.78;;;-1.30;99.90;;;;;;5055835;28;20044;-57
2021/12/11 05:16:45;;;;;;;18.17;8.00;;;-1.20;99.90;;;;;;5063135;28;20829;-53
2021/12/11 05:19:11;;;;;;;21.88;8.65;;;-1.20;99.90;;;;;;5059817;28;20061;-50
2021/12/11 05:21:37;;;;;;;16.50;8.43;;;-1.20;99.90;;;;;;5062600;28;20047;-51
2021/12/11 05:24:05;;;;;;;24.40;9.88;;;-1.30;99.90;;;;;;5063885;28;20595;-52
2021/12/11 05:26:32;;;;;;;21.58;8.80;;;-1.30;99.90;;;;;;5066106;28;20044;-58
2021/12/11 05:28:57;;;;;;;21.60;9.60;;;-1.30;99.90;;;;;;5063951;28;20029;-55
2021/12/11 05:31:23;;;;;;;20.73;9.10;;;-1.30;99.90;;;;;;5064122;28;20098;-52
2021/12/11 05:33:50;;;;;;;20.08;8.90;;;-1.30;99.90;;;;;;5059755;28;20626;-54
2021/12/11 05:36:18;;;;;;;16.42;8.38;;;-1.30;99.90;;;;;;5064557;28;20040;-57
2021/12/11 05:38:47;;;;;;;21.25;8.52;;;-1.30;99.90;;;;;;5058614;28;20036;-57
2021/12/11 05:41:15;;;;;;;28.55;10.52;;;-1.30;99.90;;;;;;5062753;28;20112;-58
2021/12/11 05:43:42;;;;;;;21.50;9.52;;;-1.30;99.90;;;;;;5072132;28;20068;-56
2021/12/11 05:46:09;;;;;;;20.98;10.10;;;-1.20;99.90;;;;;;5073080;28;20040;-57
2021/12/11 05:48:35;;;;;;;18.63;9.05;;;-1.20;99.90;;;;;;5072722;28;20522;-52
2021/12/11 05:51:05;;;;;;;28.15;11.23;;;-1.20;99.90;;;;;;5076382;28;20521;-57
2021/12/11 05:53:32;;;;;;;20.02;10.38;;;-1.20;99.90;;;;;;5070230;28;20090;-57
2021/12/11 05:56:01;;;;;;;29.98;11.68;;;-1.20;99.90;;;;;;5071755;28;20072;-51
2021/12/11 05:58:46;;;;;;;26.45;12.43;;;-1.20;99.90;;;;;;5061038;28;20118;-55
2021/12/11 06:01:18;;;;;;;42.17;14.40;;;-1.20;99.90;;;;;;5063756;28;20052;-54
2021/12/11 06:03:44;;;;;;;24.25;11.68;;;-1.20;99.90;;;;;;5074011;28;20068;-57
2021/12/11 06:06:10;;;;;;;26.13;12.48;;;-1.20;99.90;;;;;;5075224;28;20044;-51
2021/12/11 06:08:36;;;;;;;25.90;13.85;;;-1.20;99.90;;;;;;5075376;28;20390;-54
2021/12/11 06:11:03;;;;;;;25.02;12.60;;;-1.20;99.90;;;;;;5071630;28;20131;-53
2021/12/11 06:13:29;;;;;;;27.45;12.35;;;-1.20;99.90;;;;;;5070342;28;20036;-57
2021/12/11 06:15:56;;;;;;;19.20;10.57;;;-1.20;99.90;;;;;;5077677;28;20040;-56
2021/12/11 06:18:22;;;;;;;23.67;11.45;;;-1.20;99.90;;;;;;5067172;28;20082;-52
2021/12/11 06:20:48;;;;;;;23.45;11.00;;;-1.30;99.90;;;;;;5054833;28;20470;-58
2021/12/11 06:23:15;;;;;;;29.60;10.80;;;-1.30;99.90;;;;;;5066741;28;20711;-53
2021/12/11 06:25:41;;;;;;;20.35;11.65;;;-1.30;99.90;;;;;;5060825;28;20055;-56
2021/12/11 06:28:08;;;;;;;33.13;13.00;;;-1.30;99.90;;;;;;5065970;28;20068;-57
2021/12/11 06:30:36;;;;;;;23.42;11.30;;;-1.30;99.90;;;;;;5061192;28;20102;-59
2021/12/11 06:33:02;;;;;;;24.55;12.40;;;-1.30;99.90;;;;;;5066570;28;20574;-57
2021/12/11 06:35:31;;;;;;;27.25;12.30;;;-1.30;99.90;;;;;;5059888;28;20036;-58
2021/12/11 06:37:57;;;;;;;25.98;12.45;;;-1.30;99.90;;;;;;5060230;28;20044;-60
2021/12/11 06:40:25;;;;;;;25.02;12.05;;;-1.40;99.90;;;;;;5060807;28;20049;-59
2021/12/11 06:42:51;;;;;;;25.02;10.90;;;-1.50;99.90;;;;;;5066836;28;20152;-59
2021/12/11 06:45:18;;;;;;;25.45;11.98;;;-1.50;99.90;;;;;;5061502;28;20032;-58
2021/12/11 06:47:43;;;;;;;24.33;10.35;;;-1.60;99.90;;;;;;5066553;28;20114;-59
2021/12/11 06:50:09;;;;;;;29.70;11.60;;;-1.60;99.90;;;;;;5060396;28;20481;-59
2021/12/11 06:52:35;;;;;;;21.70;10.65;;;-1.70;99.90;;;;;;5063538;28;20155;-59
2021/12/11 06:55:02;;;;;;;26.08;10.25;;;-1.70;99.90;;;;;;5060958;28;20039;-59
2021/12/11 06:57:28;;;;;;;22.88;10.55;;;-1.70;99.90;;;;;;5066275;28;20051;-58
2021/12/11 06:59:54;;;;;;;24.05;10.93;;;-1.80;99.90;;;;;;5059815;28;20032;-59
2021/12/11 07:02:20;;;;;;;24.38;11.38;;;-1.90;99.90;;;;;;5063548;28;20186;-58
2021/12/11 07:04:48;;;;;;;23.35;10.27;;;-1.90;99.90;;;;;;5050293;28;20033;-57
2021/12/11 07:07:21;;;;;;;23.75;10.82;;;-1.80;99.90;;;;;;5058695;28;20045;-55
2021/12/11 07:09:47;;;;;;;27.58;11.32;;;-1.80;99.90;;;;;;5054370;28;20028;-57
2021/12/11 07:12:13;;;;;;;22.70;10.95;;;-1.80;99.90;;;;;;5066264;28;20040;-60
2021/12/11 07:14:39;;;;;;;25.75;10.77;;;-1.80;99.90;;;;;;5060799;28;20037;-55
2021/12/11 07:17:06;;;;;;;28.70;12.25;;;-1.80;99.90;;;;;;5065112;28;20090;-56
2021/12/11 07:19:32;;;;;;;26.05;11.43;;;-1.80;99.90;;;;;;5060431;28;20075;-65
2021/12/11 07:21:58;;;;;;;20.75;11.40;;;-1.70;99.90;;;;;;5063153;28;20145;-55
2021/12/11 07:24:32;;;;;;;22.65;11.63;;;-1.70;99.90;;;;;;5061240;28;20044;-58
2021/12/11 07:27:02;;;;;;;29.20;12.70;;;-1.80;99.90;;;;;;5059505;28;20396;-58
2021/12/11 07:29:30;;;;;;;23.20;11.15;;;-1.80;99.90;;;;;;5063841;28;20045;-53
2021/12/11 07:31:56;;;;;;;24.65;11.32;;;-1.90;99.90;;;;;;5066812;28;20044;-57
2021/12/11 07:34:22;;;;;;;24.60;11.55;;;-1.90;99.90;;;;;;5065325;28;20097;-55
2021/12/11 07:36:50;;;;;;;31.52;14.20;;;-1.80;99.90;;;;;;5067765;28;20040;-54
2021/12/11 07:39:21;;;;;;;26.48;11.80;;;-1.80;99.90;;;;;;5059831;28;20041;-59
2021/12/11 07:41:52;;;;;;;25.15;12.27;;;-1.80;99.90;;;;;;5060492;28;20047;-57
2021/12/11 07:44:19;;;;;;;32.58;13.10;;;-1.90;99.90;;;;;;5064311;28;20028;-57
2021/12/11 07:46:46;;;;;;;34.10;16.13;;;-1.90;99.90;;;;;;5068563;28;20040;-53
2021/12/11 07:49:12;;;;;;;70.82;28.95;;;-1.90;99.90;;;;;;5066764;28;20036;-58
2021/12/11 07:51:39;;;;;;;34.85;15.15;;;-1.80;99.90;;;;;;5075214;28;20554;-56
2021/12/11 07:54:06;;;;;;;51.53;23.17;;;-1.90;99.90;;;;;;5064002;28;20128;-57
2021/12/11 07:56:33;;;;;;;52.40;25.17;;;-1.90;99.90;;;;;;5069982;28;20044;-61
2021/12/11 07:59:01;;;;;;;36.13;17.25;;;-1.90;99.90;;;;;;5066197;28;20056;-55
2021/12/11 08:01:28;;;;;;;36.90;15.55;;;-1.90;99.90;;;;;;5060265;28;20052;-59
2021/12/11 08:03:57;;;;;;;54.40;26.60;;;-1.90;99.90;;;;;;5065669;28;20041;-55
2021/12/11 08:06:23;;;;;;;156.30;64.47;;;-1.90;99.90;;;;;;5074652;28;20048;-58
2021/12/11 08:08:49;;;;;;;139.20;57.33;;;-1.90;99.90;;;;;;5073717;28;20665;-57
2021/12/11 08:11:18;;;;;;;71.05;30.48;;;-1.90;99.90;;;;;;5074799;28;20116;-55
2021/12/11 08:13:47;;;;;;;45.35;20.63;;;-1.80;99.90;;;;;;5067635;28;20106;-63
2021/12/11 08:16:18;;;;;;;35.97;17.23;;;-1.80;99.90;;;;;;5063318;28;20076;-61
2021/12/11 08:18:43;;;;;;;30.83;15.40;;;-1.70;99.90;;;;;;5066663;28;20040;-53
2021/12/11 08:21:09;;;;;;;36.80;15.60;;;-1.70;99.90;;;;;;5063522;28;20151;-53
2021/12/11 08:23:43;;;;;;;30.23;15.40;;;-1.70;99.90;;;;;;5064686;28;20033;-54
2021/12/11 08:26:08;;;;;;;37.25;15.73;;;-1.50;99.90;;;;;;5061026;28;20087;-56
2021/12/11 08:28:34;;;;;;;33.05;14.13;;;-1.50;99.90;;;;;;5066024;28;20101;-53
2021/12/11 08:31:00;;;;;;;27.33;12.85;;;-1.40;99.90;;;;;;5061688;28;20119;-55
2021/12/11 08:33:26;;;;;;;24.83;12.70;;;-1.40;99.90;;;;;;5066033;28;20055;-56
2021/12/11 08:35:53;;;;;;;26.90;13.52;;;-1.40;99.90;;;;;;5070466;28;20033;-53
2021/12/11 08:38:20;;;;;;;36.17;15.35;;;-1.40;99.90;;;;;;5062331;28;20079;-53
2021/12/11 08:40:51;;;;;;;30.42;14.43;;;-1.40;99.90;;;;;;5065725;28;20036;-61
2021/12/11 08:43:18;;;;;;;32.33;14.23;;;-1.30;99.90;;;;;;5061247;28;20036;-58
2021/12/11 08:45:57;;;;;;;33.65;14.43;;;-1.30;99.90;;;;;;5064575;28;20032;-56
2021/12/11 08:48:25;;;;;;;31.15;13.57;;;-1.20;99.90;;;;;;5063227;28;20099;-55
2021/12/11 08:51:01;;;;;;;32.55;16.00;;;-1.20;99.90;;;;;;5076543;28;20032;-52
2021/12/11 08:53:27;;;;;;;30.95;15.77;;;-1.10;99.90;;;;;;5075918;28;20179;-51
2021/12/11 08:55:54;;;;;;;34.65;13.93;;;-1.10;99.90;;;;;;5062028;28;20071;-58
2021/12/11 08:58:21;;;;;;;29.48;13.95;;;-0.90;99.90;;;;;;5060669;28;20038;-53
2021/12/11 09:00:58;;;;;;;26.00;13.13;;;-1.00;99.90;;;;;;5076921;28;20037;-55
2021/12/11 09:03:35;;;;;;;32.30;14.85;;;-0.90;99.90;;;;;;5075641;28;20193;-54
2021/12/11 09:06:08;;;;;;;29.65;14.02;;;-0.80;99.90;;;;;;5075631;28;20726;-50
2021/12/11 09:08:45;;;;;;;31.40;13.75;;;-0.70;99.90;;;;;;5072045;28;20108;-55
2021/12/11 09:11:17;;;;;;;22.75;11.15;;;-0.70;99.90;;;;;;5069940;28;20033;-49
2021/12/11 09:13:45;;;;;;;24.27;12.70;;;-0.70;99.90;;;;;;5077037;28;20044;-61
2021/12/11 09:16:21;;;;;;;25.58;11.75;;;-0.50;99.90;;;;;;5058572;22;20052;-54
2021/12/11 09:18:53;;;;;;;;;;;-0.50;99.90;;;;;;5063357;28;20041;-56
2021/12/11 09:21:29;;;;;;;30.38;13.63;;;-0.40;99.90;;;;;;5060534;28;19920;-56
2021/12/11 09:24:04;;;;;;;28.02;13.32;;;-0.40;99.90;;;;;;5057706;28;20037;-54
2021/12/11 09:26:44;;;;;;;28.15;12.90;;;-0.20;99.90;;;;;;5060667;28;20037;-55
2021/12/11 09:29:21;;;;;;;24.10;11.73;;;-0.20;99.90;;;;;;5061190;28;20472;-55
2021/12/11 09:32:05;;;;;;;25.67;11.60;;;-0.20;99.90;;;;;;5056193;28;20033;-55
2021/12/11 09:34:45;;;;;;;25.83;12.45;;;-0.10;99.90;;;;;;5056467;28;20082;-51
2021/12/11 09:37:11;;;;;;;25.42;10.90;;;0.10;99.90;;;;;;5056398;28;20573;-58
2021/12/11 09:39:55;;;;;;;26.27;11.48;;;0.10;99.90;;;;;;5066735;28;20404;-56
2021/12/11 09:42:21;;;;;;;26.70;11.80;;;0.10;99.90;;;;;;5062551;28;20051;-53
2021/12/11 09:44:56;;;;;;;27.98;12.55;;;0.30;99.90;;;;;;5066070;28;20036;-54
2021/12/11 09:47:29;;;;;;;29.88;14.02;;;0.40;99.90;;;;;;5048661;28;20043;-49
2021/12/11 09:50:03;;;;;;;28.30;12.93;;;0.50;99.90;;;;;;5062615;28;20110;-54
2021/12/11 09:52:30;;;;;;;28.58;12.40;;;0.50;99.90;;;;;;5062635;28;20040;-59
2021/12/11 09:55:02;;;;;;;28.65;12.75;;;0.50;99.90;;;;;;5061824;28;20719;-54
2021/12/11 09:57:32;;;;;;;21.90;11.73;;;0.70;99.90;;;;;;5062278;28;20048;-53
2021/12/11 10:00:05;;;;;;;25.98;11.85;;;0.70;99.90;;;;;;5065612;28;20123;-53
2021/12/11 10:02:34;;;;;;;22.23;10.23;;;0.80;99.90;;;;;;5064124;28;20124;-52
2021/12/11 10:05:03;;;;;;;21.25;11.18;;;0.90;99.90;;;;;;5066589;28;20044;-55
2021/12/11 10:07:36;;;;;;;33.55;11.20;;;1.00;99.90;;;;;;5065997;28;20036;-51
2021/12/11 10:10:09;;;;;;;24.40;9.65;;;1.10;99.90;;;;;;5049016;28;20048;-55
2021/12/11 10:12:37;;;;;;;24.25;10.88;;;1.20;99.90;;;;;;5067336;28;20650;-54
2021/12/11 10:15:15;;;;;;;22.02;10.35;;;1.30;99.90;;;;;;5066813;28;20127;-55
2021/12/11 10:17:53;;;;;;;24.95;10.70;;;1.50;99.90;;;;;;5065928;28;20106;-57
2021/12/11 10:20:30;;;;;;;27.08;11.05;;;1.60;99.90;;;;;;5066619;28;20047;-52
2021/12/11 10:22:58;;;;;;;35.75;18.30;;;1.70;99.90;;;;;;5048353;28;20049;-57
2021/12/11 10:25:31;;;;;;;22.98;11.85;;;1.80;99.90;;;;;;5066992;28;20044;-56
2021/12/11 10:28:04;;;;;;;20.98;11.50;;;1.90;99.90;;;;;;5067732;28;20064;-52
2021/12/11 10:30:35;;;;;;;23.38;10.13;;;2.00;99.90;;;;;;5065180;28;20526;-55
2021/12/11 10:33:04;;;;;;;33.65;14.75;;;1.90;99.90;;;;;;5063836;28;20036;-53
2021/12/11 10:35:36;;;;;;;22.73;10.27;;;1.90;99.90;;;;;;5063619;28;20040;-54
2021/12/11 10:38:05;;;;;;;18.80;8.77;;;2.00;99.90;;;;;;5065964;28;20036;-55
2021/12/11 10:40:35;;;;;;;21.95;9.38;;;2.10;99.90;;;;;;5065675;28;20136;-56
2021/12/11 10:43:09;;;;;;;40.47;16.45;;;2.10;99.90;;;;;;5056799;28;20149;-52
2021/12/11 10:45:35;;;;;;;27.50;10.45;;;2.10;99.90;;;;;;5065680;28;20496;-54
2021/12/11 10:48:09;;;;;;;26.00;11.23;;;2.10;99.90;;;;;;5066104;28;20045;-53
2021/12/11 10:50:52;;;;;;;33.33;11.50;;;2.10;99.90;;;;;;5054815;28;20059;-54
2021/12/11 10:53:21;;;;;;;21.30;9.02;;;2.20;99.90;;;;;;5066811;28;20035;-58
2021/12/11 10:55:49;;;;;;;19.17;8.75;;;2.20;99.90;;;;;;5066327;28;20078;-53
2021/12/11 10:58:19;;;;;;;15.90;7.25;;;2.30;99.90;;;;;;5066382;28;20033;-54
2021/12/11 11:01:10;;;;;;;16.40;7.25;;;2.30;99.90;;;;;;5064673;28;20056;-54
2021/12/11 11:03:39;;;;;;;16.63;7.68;;;2.30;99.90;;;;;;5052744;28;20044;-57
2021/12/11 11:06:07;;;;;;;17.80;8.05;;;2.30;99.90;;;;;;5058300;28;20044;-54
2021/12/11 11:08:34;;;;;;;19.05;7.85;;;2.20;99.90;;;;;;5065562;28;20087;-54
2021/12/11 11:11:10;;;;;;;17.52;6.88;;;2.20;99.90;;;;;;5065362;28;20046;-53
2021/12/11 11:13:36;;;;;;;15.70;7.83;;;2.20;99.90;;;;;;5061350;28;20043;-59
2021/12/11 11:16:02;;;;;;;20.05;8.20;;;2.20;99.90;;;;;;5062639;28;20792;-55
2021/12/11 11:18:28;;;;;;;16.98;8.07;;;2.10;99.90;;;;;;5062601;28;20132;-56
2021/12/11 11:21:06;;;;;;;17.25;7.53;;;2.20;99.90;;;;;;5068213;28;20068;-53
2021/12/11 11:23:32;;;;;;;16.70;7.53;;;2.20;99.90;;;;;;5065893;28;20044;-54
2021/12/11 11:26:01;;;;;;;16.98;7.72;;;2.30;99.90;;;;;;5064980;28;20231;-55
2021/12/11 11:28:30;;;;;;;12.85;6.43;;;2.30;99.90;;;;;;5065814;28;20139;-52
2021/12/11 11:31:16;;;;;;;14.88;6.50;;;2.30;99.90;;;;;;5064122;28;20128;-56
2021/12/11 11:33:44;;;;;;;15.77;5.75;;;2.20;99.90;;;;;;5066352;28;20131;-59
2021/12/11 11:36:13;;;;;;;15.00;6.72;;;2.30;99.90;;;;;;5066564;28;20127;-56
2021/12/11 11:38:43;;;;;;;18.88;7.72;;;2.30;99.90;;;;;;5065336;28;20067;-53
2021/12/11 11:41:19;;;;;;;20.20;7.70;;;2.20;99.90;;;;;;5064923;28;20701;-57
2021/12/11 11:43:45;;;;;;;;;;;2.20;99.90;;;;;;5062798;28;20055;-57
2021/12/11 11:46:12;;;;;;;15.07;8.10;;;2.20;99.90;;;;;;5065039;28;20396;-56
2021/12/11 11:48:42;;;;;;;21.42;8.70;;;2.30;99.90;;;;;;5055841;28;20140;-55
2021/12/11 11:51:15;;;;;;;18.77;7.80;;;2.20;99.90;;;;;;5060358;28;20029;-54
2021/12/11 11:53:41;;;;;;;18.30;8.85;;;2.20;99.90;;;;;;5060649;28;20443;-57
2021/12/11 11:56:10;;;;;;;20.50;9.65;;;2.10;99.90;;;;;;5062304;28;20144;-56
2021/12/11 11:58:37;;;;;;;21.70;8.95;;;2.00;99.90;;;;;;5067578;28;20048;-58
2021/12/11 12:01:20;;;;;;;18.77;9.68;;;2.00;99.90;;;;;;5048456;28;20089;-58
2021/12/11 12:03:47;;;;;;;17.92;8.43;;;2.10;99.90;;;;;;5062188;28;20051;-56
2021/12/11 12:06:22;;;;;;;19.02;7.63;;;2.10;99.90;;;;;;5065339;28;20081;-53
2021/12/11 12:08:48;;;;;;;16.42;8.35;;;2.20;99.90;;;;;;5065768;28;20105;-56
2021/12/11 12:11:15;;;;;;;17.13;8.52;;;2.20;99.90;;;;;;5065499;28;20051;-57
2021/12/11 12:13:40;;;;;;;17.77;8.15;;;2.20;99.90;;;;;;5066928;28;20555;-56
2021/12/11 12:16:12;;;;;;;19.17;8.93;;;2.30;99.90;;;;;;5069066;28;20117;-54
2021/12/11 12:18:41;;;;;;;12.35;6.43;;;2.40;99.90;;;;;;5069676;28;20040;-54
2021/12/11 12:21:11;;;;;;;14.27;7.18;;;2.40;99.90;;;;;;5064413;28;20520;-54
2021/12/11 12:23:37;;;;;;;19.35;7.57;;;2.50;99.90;;;;;;5064695;28;20041;-56
2021/12/11 12:26:08;;;;;;;21.08;7.97;;;2.50;99.90;;;;;;5065898;28;20049;-56
2021/12/11 12:28:34;;;;;;;19.58;8.45;;;2.40;99.90;;;;;;5065483;28;20040;-54
2021/12/11 12:31:09;;;;;;;18.10;8.45;;;2.40;99.90;;;;;;5067837;28;20673;-53
2021/12/11 12:33:35;;;;;;;21.20;8.60;;;2.50;99.90;;;;;;5064697;28;20045;-57
2021/12/11 12:36:02;;;;;;;21.17;8.68;;;2.40;99.90;;;;;;5068595;28;20550;-56
2021/12/11 12:38:30;;;;;;;18.23;7.60;;;2.40;99.90;;;;;;5066900;28;20055;-58
2021/12/11 12:40:59;;;;;;;15.55;7.53;;;2.50;99.90;;;;;;5068135;28;20460;-57
2021/12/11 12:46:15;;;;;;;18.25;7.70;;;2.50;99.90;;;;;;5065343;28;20044;-57
2021/12/11 12:48:41;;;;;;;17.92;7.40;;;2.40;99.90;;;;;;5068346;28;20044;-55
2021/12/11 12:51:11;;;;;;;14.80;7.45;;;2.40;99.90;;;;;;5067523;28;20051;-57
2021/12/11 12:53:39;;;;;;;14.77;6.88;;;2.40;99.90;;;;;;5067628;28;20041;-56
2021/12/11 12:56:17;;;;;;;19.35;8.32;;;2.40;99.90;;;;;;5064462;28;20032;-55
2021/12/11 12:59:04;;;;;;;19.25;6.72;;;2.30;99.90;;;;;;5068426;28;20044;-52
2021/12/11 13:01:39;;;;;;;14.25;6.90;;;2.30;99.90;;;;;;5064666;28;20037;-53
2021/12/11 13:04:07;;;;;;;18.30;6.75;;;2.10;99.90;;;;;;5065572;28;20513;-54
2021/12/11 13:06:38;;;;;;;19.30;7.28;;;2.10;99.90;;;;;;5063943;28;20054;-57
2021/12/11 13:09:16;;;;;;;16.25;7.30;;;2.20;99.90;;;;;;5059537;28;20044;-54